Time;durP1;ratioP1;P1;durP2;ratioP2;P2;SDS_P1;SDS_P2;PMS_P1;PMS_P2;Temp;Humidity;BMP_temperature;BMP_pressure;BME280_temperature;BME280_humidity;BME280_pressure;Samples;Min_cycle;Max_cycle;Signal;HPM_P1;HPM_P2
2022/05/16 00:01:51;;;;;;;11.90;3.97;;;;;;;16.82;59.38;101303.69;5098816;28;20020;-62
2022/05/16 00:04:17;;;;;;;9.13;3.67;;;;;;;16.78;59.20;101298.41;5099830;28;20039;-62
2022/05/16 00:06:42;;;;;;;8.98;3.60;;;;;;;16.78;59.02;101290.56;5101102;28;20023;-63
2022/05/16 00:09:08;;;;;;;10.35;4.25;;;;;;;16.72;59.61;101290.50;5098313;28;20468;-62
2022/05/16 00:11:34;;;;;;;9.27;4.00;;;;;;;16.75;59.58;101294.88;5099838;28;20015;-62
2022/05/16 00:13:59;;;;;;;7.47;3.38;;;;;;;16.63;59.58;101295.59;5099826;28;20019;-63
2022/05/16 00:16:24;;;;;;;11.23;4.05;;;;;;;16.62;59.73;101291.22;5097527;28;20023;-63
2022/05/16 00:18:51;;;;;;;8.95;3.75;;;;;;;16.62;60.03;101291.22;5101444;28;20020;-62
2022/05/16 00:21:16;;;;;;;9.18;3.42;;;;;;;16.60;60.18;101290.31;5100561;28;20024;-62
2022/05/16 00:23:42;;;;;;;9.20;3.40;;;;;;;16.61;60.58;101285.09;5096624;28;20028;-63
2022/05/16 00:26:07;;;;;;;7.78;3.80;;;;;;;16.60;60.43;101277.25;5099836;28;20038;-62
2022/05/16 00:28:32;;;;;;;7.35;3.60;;;;;;;16.56;60.16;101276.31;5097376;28;20008;-62
2022/05/16 00:30:57;;;;;;;9.23;3.90;;;;;;;16.50;61.12;101269.25;5101667;28;20046;-62
2022/05/16 00:33:23;;;;;;;11.00;3.95;;;;;;;16.49;60.82;101264.91;5097728;28;20440;-63
2022/05/16 00:35:48;;;;;;;8.43;3.90;;;;;;;16.48;60.82;101265.72;5096094;27;20048;-63
2022/05/16 00:38:13;;;;;;;6.80;3.60;;;;;;;16.45;61.34;101268.31;5100282;28;20023;-63
2022/05/16 00:40:39;;;;;;;11.48;4.03;;;;;;;16.42;61.25;101263.91;5099810;28;20181;-62
2022/05/16 00:43:10;;;;;;;8.10;3.88;;;;;;;16.42;61.28;101270.88;5102046;28;20135;-62
2022/05/16 00:45:36;;;;;;;8.60;3.90;;;;;;;16.38;61.21;101267.34;5101720;28;20521;-63
2022/05/16 00:48:02;;;;;;;10.75;3.97;;;;;;;16.31;61.87;101269.00;5098034;28;20027;-63
2022/05/16 00:50:28;;;;;;;9.48;4.03;;;;;;;16.29;61.66;101268.09;5100433;28;20038;-62
2022/05/16 00:52:55;;;;;;;8.50;3.88;;;;;;;16.27;62.15;101264.56;5100269;28;20027;-63
2022/05/16 00:55:31;;;;;;;8.95;3.88;;;;;;;16.27;61.70;101269.81;5099415;28;20027;-62
2022/05/16 00:58:07;;;;;;;9.15;4.40;;;;;;;16.24;62.31;101269.75;5099115;28;20034;-62
2022/05/16 01:00:35;;;;;;;10.60;3.83;;;;;;;16.25;62.19;101257.56;5096225;28;20097;-62
2022/05/16 01:05:53;;;;;;;9.43;5.18;;;;;;;16.17;63.33;101258.31;5099451;28;20050;-62
2022/05/16 01:08:25;;;;;;;8.50;3.70;;;;;;;16.12;63.80;101253.91;5097860;28;20027;-63
2022/05/16 01:10:52;;;;;;;8.88;3.97;;;;;;;16.06;63.41;101247.69;5096873;28;20072;-62
2022/05/16 01:13:17;;;;;;;11.52;3.95;;;;;;;16.06;63.63;101252.06;5100381;28;20054;-62
2022/05/16 01:15:48;;;;;;;10.63;4.25;;;;;;;16.04;63.68;101256.38;5100873;28;20039;-63
2022/05/16 01:18:16;;;;;;;9.90;4.22;;;;;;;15.98;64.47;101257.13;5099091;28;20043;-62
2022/05/16 01:21:19;;;;;;;8.27;3.85;;;;;;;15.92;64.34;101259.66;5099133;28;20019;-62
2022/05/16 01:24:18;;;;;;;9.23;4.15;;;;;;;15.86;64.57;101252.59;5097833;28;20468;-62
2022/05/16 01:26:43;;;;;;;9.27;4.15;;;;;;;15.84;64.90;101259.50;5081839;28;20364;-62
2022/05/16 01:29:09;;;;;;;8.55;4.22;;;;;;;15.79;65.24;101256.81;5102382;28;20031;-62
2022/05/16 01:31:35;;;;;;;8.70;4.20;;;;;;;15.73;65.77;101261.94;5100280;28;20107;-63
2022/05/16 01:34:01;;;;;;;8.60;3.70;;;;;;;15.68;66.70;101259.25;5102268;28;20065;-62
2022/05/16 01:36:27;;;;;;;11.15;4.30;;;;;;;15.63;66.36;101255.69;5104368;28;20098;-62
2022/05/16 01:38:53;;;;;;;7.78;4.15;;;;;;;15.59;66.91;101259.09;5103609;28;20106;-62
2022/05/16 01:41:21;;;;;;;9.77;4.25;;;;;;;15.56;66.89;101257.28;5103866;28;20038;-62
2022/05/16 01:43:49;;;;;;;7.75;4.22;;;;;;;15.54;67.83;101251.16;5103003;28;20075;-63
2022/05/16 01:46:20;;;;;;;9.27;4.00;;;;;;;15.51;67.27;101245.03;5102535;28;20019;-62
2022/05/16 01:48:46;;;;;;;10.10;4.13;;;;;;;15.46;66.81;101251.03;5104610;28;20080;-63
2022/05/16 01:51:12;;;;;;;7.53;4.10;;;;;;;15.44;68.36;101252.72;5105282;28;20024;-62
2022/05/16 01:53:40;;;;;;;7.35;3.97;;;;;;;15.44;67.59;101250.13;5101345;28;20038;-63
2022/05/16 01:56:05;;;;;;;9.85;4.40;;;;;;;15.43;68.55;101239.66;5102874;28;20038;-62
2022/05/16 01:58:31;;;;;;;10.32;4.18;;;;;;;15.42;68.17;101232.66;5099518;28;20463;-62
2022/05/16 02:00:56;;;;;;;9.02;4.13;;;;;;;15.38;69.11;101233.47;5103189;28;20016;-62
2022/05/16 02:03:22;;;;;;;10.13;4.00;;;;;;;15.37;69.58;101232.56;5096351;28;20076;-62
2022/05/16 02:05:48;;;;;;;9.60;4.40;;;;;;;15.34;69.07;101228.16;5100232;28;20039;-63
2022/05/16 02:08:15;;;;;;;11.57;4.38;;;;;;;15.35;68.48;101231.66;5100983;28;20059;-62
2022/05/16 02:10:41;;;;;;;8.98;4.60;;;;;;;15.33;68.96;101231.63;5101005;28;20024;-63
2022/05/16 02:13:08;;;;;;;10.10;4.47;;;;;;;15.35;69.23;101234.28;5101503;28;20012;-62
2022/05/16 02:15:35;;;;;;;9.63;4.50;;;;;;;15.34;69.05;101228.16;5101741;28;20020;-62
2022/05/16 02:18:02;;;;;;;6.63;4.40;;;;;;;15.33;70.37;101220.31;5101091;28;20072;-62
2022/05/16 02:20:28;;;;;;;9.23;4.63;;;;;;;15.30;70.41;101225.47;5100807;28;20474;-62
2022/05/16 02:25:41;;;;;;;9.13;3.88;;;;;;;15.23;70.74;101221.88;5101904;28;20058;-62
2022/05/16 02:28:14;;;;;;;11.63;4.47;;;;;;;15.21;70.75;101219.25;5101221;28;20031;-63
2022/05/16 02:30:40;;;;;;;9.77;4.78;;;;;;;15.18;70.32;101221.78;5099934;28;20027;-62
2022/05/16 02:33:06;;;;;;;9.68;4.32;;;;;;;15.16;71.26;101214.78;5101295;28;20046;-62
2022/05/16 02:35:31;;;;;;;7.40;4.00;;;;;;;15.11;70.86;101210.34;5102122;28;20090;-63
2022/05/16 02:37:58;;;;;;;7.22;4.18;;;;;;;15.08;70.77;101212.91;5098089;28;20030;-63
2022/05/16 02:40:25;;;;;;;7.70;3.70;;;;;;;15.05;71.91;101207.63;5101379;28;20028;-62
2022/05/16 02:42:51;;;;;;;8.15;4.63;;;;;;;15.03;71.46;101209.34;5101220;28;20039;-62
2022/05/16 02:45:16;;;;;;;10.77;5.55;;;;;;;15.00;71.81;101198.84;5102051;28;20027;-63
2022/05/16 02:47:42;;;;;;;9.43;4.10;;;;;;;14.98;72.38;101200.53;5106084;27;20463;-62
2022/05/16 02:50:08;;;;;;;6.95;4.28;;;;;;;14.93;72.60;101196.97;5099279;28;20070;-62
2022/05/16 02:52:33;;;;;;;6.90;4.28;;;;;;;14.88;73.19;101195.13;5099580;28;20463;-62
2022/05/16 02:55:00;;;;;;;7.55;4.00;;;;;;;14.86;73.56;101189.00;5101096;28;20051;-62
2022/05/16 02:57:26;;;;;;;8.38;4.65;;;;;;;14.85;72.69;101181.16;5098762;28;20023;-62
2022/05/16 02:59:52;;;;;;;6.43;3.97;;;;;;;14.84;73.23;101180.25;5100113;28;20510;-63
2022/05/16 03:02:17;;;;;;;5.45;4.20;;;;;;;14.82;73.36;101171.50;5099724;28;20039;-63
2022/05/16 03:04:43;;;;;;;7.88;4.18;;;;;;;14.80;73.53;101177.53;5104308;28;20390;-62
2022/05/16 03:07:08;;;;;;;6.70;4.28;;;;;;;14.80;74.02;101177.53;5101846;28;20024;-62
2022/05/16 03:09:33;;;;;;;7.60;4.03;;;;;;;14.77;74.30;101175.72;5101086;28;20027;-62
2022/05/16 03:12:00;;;;;;;9.35;4.10;;;;;;;14.74;74.39;101173.06;5097933;27;20059;-62
2022/05/16 03:14:26;;;;;;;9.60;4.30;;;;;;;14.73;74.52;101161.75;5100169;28;20024;-62
2022/05/16 03:16:51;;;;;;;8.02;4.65;;;;;;;14.73;74.38;101166.09;5099665;28;20032;-62
2022/05/16 03:19:17;;;;;;;7.32;4.28;;;;;;;14.71;74.41;101165.19;5101636;28;20027;-63
2022/05/16 03:21:43;;;;;;;7.75;3.88;;;;;;;14.72;74.47;101159.13;5101231;28;20036;-62
2022/05/16 03:24:08;;;;;;;12.65;4.40;;;;;;;14.72;74.54;101173.03;5102338;28;20582;-63
2022/05/16 03:26:35;;;;;;;6.43;4.28;;;;;;;14.73;75.10;101176.53;5100310;28;20027;-62
2022/05/16 03:29:02;;;;;;;9.70;4.57;;;;;;;14.74;74.93;101173.97;5100477;28;20046;-62
2022/05/16 03:31:27;;;;;;;9.02;5.75;;;;;;;14.75;74.25;101173.09;5102565;28;20023;-63
2022/05/16 03:33:52;;;;;;;5.97;4.30;;;;;;;14.77;74.27;101173.13;5098230;28;20383;-63
2022/05/16 03:36:18;;;;;;;7.18;4.32;;;;;;;14.79;74.55;101175.78;5097607;28;20555;-63
2022/05/16 03:41:27;;;;;;;7.10;4.40;;;;;;;14.76;74.32;101174.88;5096346;28;20163;-62
2022/05/16 03:43:52;;;;;;;9.43;4.32;;;;;;;14.76;75.22;101176.59;5097786;28;20444;-64
2022/05/16 03:46:18;;;;;;;8.07;5.50;;;;;;;14.75;75.83;101173.09;5099307;28;20055;-62
2022/05/16 03:48:44;;;;;;;7.90;4.38;;;;;;;14.74;76.29;101173.97;5098043;28;20107;-62
2022/05/16 03:51:12;;;;;;;8.68;4.78;;;;;;;14.74;75.71;101170.47;5100360;28;20031;-63
2022/05/16 03:53:46;;;;;;;8.80;4.78;;;;;;;14.75;75.33;101169.63;5098731;28;20019;-62
2022/05/16 03:56:12;;;;;;;10.38;5.25;;;;;;;14.74;75.24;101170.47;5096651;28;20380;-63
2022/05/16 03:58:37;;;;;;;6.43;4.32;;;;;;;14.73;76.05;101166.97;5100478;28;20036;-63
2022/05/16 04:01:03;;;;;;;8.93;4.15;;;;;;;14.73;75.89;101171.31;5097460;28;20027;-63
2022/05/16 04:03:28;;;;;;;7.18;4.82;;;;;;;14.72;75.88;101175.66;5098439;28;20031;-63
2022/05/16 04:05:53;;;;;;;8.57;4.82;;;;;;;14.72;76.13;101172.16;5098603;28;20072;-62
2022/05/16 04:08:19;;;;;;;8.93;4.40;;;;;;;14.69;76.72;101165.16;5100835;28;20015;-63
2022/05/16 04:10:44;;;;;;;5.07;3.85;;;;;;;14.68;76.53;101162.53;5100375;28;20027;-63
2022/05/16 04:13:09;;;;;;;8.10;5.07;;;;;;;14.66;76.74;101172.91;5101458;28;20099;-62
2022/05/16 04:15:34;;;;;;;9.13;5.20;;;;;;;14.65;77.19;101174.66;5099062;28;20030;-63
2022/05/16 04:18:00;;;;;;;5.72;4.75;;;;;;;14.65;77.90;101172.06;5098653;28;20038;-63
2022/05/16 04:20:25;;;;;;;8.18;4.38;;;;;;;14.65;77.47;101178.97;5098935;28;20024;-63
2022/05/16 04:22:51;;;;;;;7.68;4.90;;;;;;;14.67;78.33;101176.41;5100781;28;20019;-63
2022/05/16 04:25:18;;;;;;;7.45;4.65;;;;;;;14.67;78.07;101187.72;5099727;28;20254;-62
2022/05/16 04:27:44;;;;;;;7.60;4.57;;;;;;;14.71;77.57;101188.66;5099976;28;20031;-63
2022/05/16 04:30:10;;;;;;;10.43;5.07;;;;;;;14.71;77.35;101184.34;5097721;28;20388;-63
2022/05/16 04:32:36;;;;;;;7.85;4.63;;;;;;;14.72;77.62;101179.97;5098219;28;20020;-62
2022/05/16 04:35:02;;;;;;;7.60;4.07;;;;;;;14.75;76.86;101169.63;5101118;28;20059;-63
2022/05/16 04:37:32;;;;;;;7.72;4.50;;;;;;;14.80;77.45;101178.44;5097989;28;20028;-62
2022/05/16 04:40:08;;;;;;;7.57;4.15;;;;;;;14.86;76.98;101183.78;5095063;28;20353;-63
2022/05/16 04:42:42;;;;;;;8.55;4.30;;;;;;;14.89;77.65;101170.78;5098359;28;20386;-63
2022/05/16 04:45:14;;;;;;;8.95;4.65;;;;;;;14.96;76.85;101178.75;5101895;28;20023;-62
2022/05/16 04:47:39;;;;;;;10.68;5.05;;;;;;;14.96;76.48;101181.34;5095585;28;20024;-62
2022/05/16 04:50:06;;;;;;;5.95;4.32;;;;;;;15.03;77.36;101185.84;5098025;28;20034;-63
2022/05/16 04:52:32;;;;;;;9.55;4.60;;;;;;;15.08;76.57;101183.31;5098302;28;20100;-63
2022/05/16 04:54:58;;;;;;;8.15;4.25;;;;;;;15.16;77.40;101191.28;5100214;28;21327;-62
2022/05/16 04:57:24;;;;;;;8.65;4.40;;;;;;;15.22;76.29;101191.41;5102033;28;20027;-62
2022/05/16 04:59:49;;;;;;;6.82;4.45;;;;;;;15.26;74.85;101188.00;5099085;28;20016;-62
2022/05/16 05:02:16;;;;;;;7.03;4.38;;;;;;;15.35;75.42;101193.38;5101130;28;20063;-62
2022/05/16 05:04:41;;;;;;;5.97;4.55;;;;;;;15.46;74.02;101195.31;5102272;28;20448;-62
2022/05/16 05:07:07;;;;;;;6.25;3.78;;;;;;;15.53;74.36;101191.94;5104264;28;20031;-62
2022/05/16 05:14:31;;;;;;;5.78;3.95;;;;;;;15.62;73.89;101201.66;5103833;28;20016;-62
2022/05/16 05:15:01;;;;;;;8.30;4.15;;;;;;;15.77;74.82;101185.38;5099744;27;20667;-63
2022/05/16 05:17:27;;;;;;;5.13;3.83;;;;;;;15.84;74.58;101186.34;5108414;27;20172;-63
2022/05/16 05:19:52;;;;;;;9.50;4.68;;;;;;;15.90;74.86;101186.44;5095911;27;20463;-63
2022/05/16 05:22:17;;;;;;;6.80;4.05;;;;;;;15.93;74.53;101183.00;5105748;27;20147;-64
2022/05/16 05:24:43;;;;;;;6.85;4.30;;;;;;;15.99;73.97;101185.72;5109091;27;20055;-63
2022/05/16 05:27:08;;;;;;;8.75;4.10;;;;;;;16.07;73.92;101194.56;5102812;27;20026;-64
2022/05/16 05:29:33;;;;;;;10.25;4.15;;;;;;;16.12;73.48;101196.38;5110673;28;20063;-64
2022/05/16 05:31:59;;;;;;;11.00;4.40;;;;;;;16.17;73.45;101194.72;5106644;27;20020;-63
2022/05/16 05:34:24;;;;;;;7.78;3.75;;;;;;;16.20;73.17;101193.03;5094273;27;20047;-63
2022/05/16 05:36:50;;;;;;;14.35;4.65;;;;;;;16.26;73.25;101189.59;5105873;27;20024;-63
2022/05/16 05:39:16;;;;;;;6.03;3.95;;;;;;;16.33;72.89;101191.44;5101782;27;20028;-63
2022/05/16 05:41:42;;;;;;;7.90;4.32;;;;;;;16.41;73.78;101191.53;5105549;27;20755;-64
2022/05/16 05:44:07;;;;;;;6.03;4.50;;;;;;;16.46;73.33;101185.50;5108286;28;20489;-63
2022/05/16 05:46:38;;;;;;;9.07;3.88;;;;;;;16.52;73.44;101199.53;5110522;27;20019;-63
2022/05/16 05:49:04;;;;;;;8.93;4.35;;;;;;;16.59;73.21;101202.22;5091288;28;20035;-64
2022/05/16 05:51:30;;;;;;;7.20;4.20;;;;;;;16.67;72.69;101208.44;5090621;28;20020;-63
2022/05/16 05:53:55;;;;;;;9.25;4.70;;;;;;;16.71;72.59;101210.25;5090737;28;20042;-63
2022/05/16 05:56:20;;;;;;;6.65;4.45;;;;;;;16.73;72.30;101216.34;5090733;28;20016;-63
2022/05/16 05:58:46;;;;;;;13.15;4.90;;;;;;;16.76;71.53;101210.28;5090696;28;20028;-63
2022/05/16 06:01:12;;;;;;;7.85;4.88;;;;;;;16.81;71.41;101213.84;5090587;28;20028;-64
2022/05/16 06:03:38;;;;;;;8.07;4.60;;;;;;;16.88;71.37;101225.25;5090868;28;20043;-63
2022/05/16 06:06:04;;;;;;;8.50;4.65;;;;;;;16.89;70.78;101221.78;5090334;28;20113;-63
2022/05/16 06:08:29;;;;;;;6.53;4.53;;;;;;;16.90;70.83;101224.44;5091112;28;20028;-63
2022/05/16 06:10:54;;;;;;;8.80;5.22;;;;;;;16.92;70.96;101227.06;5090419;28;20028;-63
2022/05/16 06:13:19;;;;;;;5.88;4.80;;;;;;;16.93;71.08;101221.84;5089056;28;20026;-63
2022/05/16 06:15:45;;;;;;;8.57;4.93;;;;;;;16.95;71.31;101223.56;5091560;27;20435;-63
2022/05/16 06:18:11;;;;;;;8.88;5.10;;;;;;;17.00;71.34;101224.53;5098005;28;20035;-63
2022/05/16 06:20:37;;;;;;;9.63;5.00;;;;;;;17.05;72.33;101228.94;5104886;27;20027;-63
2022/05/16 06:23:03;;;;;;;8.00;4.70;;;;;;;17.09;71.54;101229.84;5109786;28;20153;-63
2022/05/16 06:25:31;;;;;;;7.35;4.25;;;;;;;17.15;70.88;101237.81;5107223;27;20118;-63
2022/05/16 06:27:57;;;;;;;8.00;4.93;;;;;;;17.23;70.38;101235.28;5101473;27;20028;-63
2022/05/16 06:30:23;;;;;;;8.57;5.38;;;;;;;17.30;71.70;101237.97;5098390;28;20035;-63
2022/05/16 06:32:49;;;;;;;11.27;5.43;;;;;;;17.34;70.78;101242.38;5109039;27;20015;-63
2022/05/16 06:35:15;;;;;;;10.30;4.50;;;;;;;17.38;70.96;101239.78;5105978;27;20056;-63
2022/05/16 06:37:41;;;;;;;7.18;4.22;;;;;;;17.43;71.20;101244.22;5102538;28;20023;-64
2022/05/16 06:40:07;;;;;;;6.40;4.28;;;;;;;17.47;70.64;101253.84;5104479;28;20030;-63
2022/05/16 06:42:32;;;;;;;9.18;4.22;;;;;;;17.52;71.21;101247.78;5104603;28;20039;-63
2022/05/16 06:44:57;;;;;;;8.13;3.38;;;;;;;17.60;70.87;101254.84;5099838;28;20027;-61
2022/05/16 06:47:24;;;;;;;8.50;3.63;;;;;;;17.67;71.24;101254.03;5105926;28;20114;-63
2022/05/16 06:49:51;;;;;;;5.75;3.15;;;;;;;17.76;70.90;101254.13;5092662;28;20024;-63
2022/05/16 06:52:17;;;;;;;6.25;3.47;;;;;;;17.89;71.12;101256.84;5093217;28;20726;-63
2022/05/16 06:54:43;;;;;;;5.57;2.95;;;;;;;17.99;69.95;101256.03;5090404;28;20020;-63
2022/05/16 06:57:09;;;;;;;5.47;3.35;;;;;;;18.18;69.16;101258.84;5094443;28;20499;-63
2022/05/16 06:59:35;;;;;;;8.32;3.60;;;;;;;18.45;69.23;101264.25;5089139;28;20024;-62
2022/05/16 07:02:00;;;;;;;10.60;3.65;;;;;;;18.69;67.80;101258.25;5096942;28;20384;-62
2022/05/16 07:04:25;;;;;;;9.48;3.05;;;;;;;18.90;66.75;101266.22;5101915;28;20118;-63
2022/05/16 07:06:51;;;;;;;8.02;3.33;;;;;;;18.99;66.56;101265.38;5099096;28;20024;-63
2022/05/16 07:09:17;;;;;;;8.98;3.58;;;;;;;19.06;67.31;101249.66;5101711;28;20027;-63
2022/05/16 07:11:43;;;;;;;8.63;3.38;;;;;;;19.11;66.59;101265.41;5098262;28;20040;-63
2022/05/16 07:14:08;;;;;;;6.63;2.67;;;;;;;19.12;67.00;101251.47;5094640;28;20470;-62
2022/05/16 07:16:33;;;;;;;7.05;2.95;;;;;;;19.16;67.06;101268.97;5100202;28;20019;-63
2022/05/16 07:18:59;;;;;;;7.38;2.65;;;;;;;19.19;66.98;101271.59;5098218;28;20024;-63
2022/05/16 07:21:24;;;;;;;6.43;2.80;;;;;;;19.20;66.95;101265.47;5100308;28;20422;-63
2022/05/16 07:23:49;;;;;;;7.25;3.70;;;;;;;19.24;66.27;101271.63;5100189;28;20016;-64
2022/05/16 07:28:58;;;;;;;6.35;3.13;;;;;;;19.36;66.87;101277.75;5099862;28;20043;-63
2022/05/16 07:31:25;;;;;;;5.50;3.05;;;;;;;19.41;66.94;101279.53;5099771;28;20019;-63
2022/05/16 07:33:51;;;;;;;8.50;2.92;;;;;;;19.48;67.41;101276.91;5099488;28;20371;-62
2022/05/16 07:36:16;;;;;;;6.97;3.10;;;;;;;19.54;68.39;101274.28;5101624;28;20024;-63
2022/05/16 07:38:41;;;;;;;9.15;2.58;;;;;;;19.59;67.44;101276.94;5102501;28;20361;-63
2022/05/16 07:41:08;;;;;;;8.32;3.00;;;;;;;19.65;67.27;101272.56;5098428;28;20024;-63
2022/05/16 07:43:33;;;;;;;7.28;2.95;;;;;;;19.71;66.92;101278.69;5095002;28;20393;-63
2022/05/16 07:45:59;;;;;;;6.72;3.38;;;;;;;19.76;67.32;101274.31;5100400;28;20012;-63
2022/05/16 07:48:25;;;;;;;6.57;2.85;;;;;;;19.80;66.62;101276.06;5106509;28;20036;-63
2022/05/16 07:50:50;;;;;;;6.88;2.50;;;;;;;19.87;67.11;101283.09;5107001;28;20459;-63
2022/05/16 07:53:16;;;;;;;5.05;2.50;;;;;;;19.91;66.57;101279.56;5107478;28;20019;-63
2022/05/16 07:55:49;;;;;;;9.20;3.22;;;;;;;19.97;66.97;101277.84;5107123;28;20426;-63
2022/05/16 07:58:15;;;;;;;5.78;2.33;;;;;;;20.05;67.12;101286.63;5100661;27;20039;-64
2022/05/16 08:00:41;;;;;;;7.53;2.40;;;;;;;20.11;66.46;101291.88;5099483;27;20356;-63
2022/05/16 08:03:14;;;;;;;3.13;2.25;;;;;;;20.22;66.77;101293.63;5096488;27;20032;-63
2022/05/16 08:05:40;;;;;;;7.13;2.50;;;;;;;20.30;66.06;101290.97;5096997;27;20024;-64
2022/05/16 08:10:50;;;;;;;2.95;2.20;;;;;;;20.54;65.44;101286.53;5101246;28;20046;-63
2022/05/16 08:13:15;;;;;;;6.00;2.15;;;;;;;20.63;65.36;101295.28;5101141;27;20023;-63
2022/05/16 08:15:42;;;;;;;5.60;2.28;;;;;;;20.74;64.65;101297.03;5100539;27;20383;-63
2022/05/16 08:18:10;;;;;;;5.57;2.10;;;;;;;20.81;64.29;101290.84;5103112;28;20190;-63
2022/05/16 08:20:37;;;;;;;7.35;2.28;;;;;;;20.92;63.88;101300.47;5099716;28;20484;-64
2022/05/16 08:23:03;;;;;;;4.70;2.15;;;;;;;21.05;63.80;101296.91;5090680;28;20028;-64
2022/05/16 08:25:29;;;;;;;6.68;2.40;;;;;;;21.30;63.22;101290.66;5095956;28;20332;-64
2022/05/16 08:27:54;;;;;;;6.22;2.40;;;;;;;21.47;62.53;101304.59;5100516;27;20028;-63
2022/05/16 08:30:21;;;;;;;6.68;2.35;;;;;;;21.62;62.41;101307.16;5092829;28;20035;-63
2022/05/16 08:32:47;;;;;;;5.43;2.83;;;;;;;21.83;62.21;101309.66;5092819;28;20472;-63
2022/05/16 08:35:13;;;;;;;7.35;2.10;;;;;;;21.98;60.91;101315.72;5093322;28;20242;-64
2022/05/16 08:40:49;;;;;;;7.60;2.35;;;;;;;22.66;61.35;101308.03;5100367;28;20084;-63
2022/05/16 08:43:17;;;;;;;8.40;2.35;;;;;;;23.11;58.57;101309.25;5089640;28;20314;-64
2022/05/16 08:46:02;;;;;;;8.82;2.35;;;;;;;23.53;57.35;101299.91;5095009;28;20445;-64
2022/05/16 08:48:39;;;;;;;7.55;2.38;;;;;;;24.00;56.21;101302.66;5104179;28;20038;-63
2022/05/16 08:51:09;;;;;;;6.25;2.78;;;;;;;24.40;55.28;101298.44;5095152;28;20106;-64
2022/05/16 08:53:39;;;;;;;6.05;2.47;;;;;;;24.83;54.50;101301.13;5088809;28;20107;-64
2022/05/16 08:56:07;;;;;;;;;;;;;;;25.09;52.35;101294.44;5092928;28;20066;-64
2022/05/16 08:58:34;;;;;;;6.03;2.20;;;;;;;25.19;51.28;101292.44;5091810;28;20026;-65
2022/05/16 09:01:07;;;;;;;5.28;2.28;;;;;;;25.52;51.61;101289.06;5089015;28;20023;-64
2022/05/16 09:03:56;;;;;;;4.40;2.15;;;;;;;25.76;50.40;101295.56;5095360;28;20131;-64
2022/05/16 09:06:26;;;;;;;5.80;2.00;;;;;;;26.01;50.22;101294.09;5091122;28;20032;-65
2022/05/16 09:09:11;;;;;;;7.00;2.05;;;;;;;26.23;49.59;101286.41;5100616;28;20494;-64
2022/05/16 09:11:54;;;;;;;7.03;2.22;;;;;;;26.29;48.19;101288.03;5087695;28;20032;-63
2022/05/16 09:14:38;;;;;;;6.57;2.20;;;;;;;26.44;47.51;101288.56;5099945;28;20020;-64
2022/05/16 09:17:12;;;;;;;5.55;2.00;;;;;;;26.45;47.57;101301.78;5092570;28;20028;-64
2022/05/16 09:19:53;;;;;;;3.47;1.75;;;;;;;26.48;47.00;101296.38;5100543;28;20038;-64
2022/05/16 09:22:31;;;;;;;6.32;2.28;;;;;;;26.46;47.38;101294.69;5103056;28;20051;-64
2022/05/16 09:25:26;;;;;;;4.53;2.00;;;;;;;26.47;47.39;101288.47;5102331;28;20446;-64
2022/05/16 09:30:45;;;;;;;4.75;1.80;;;;;;;26.54;47.46;101294.47;5089969;28;20081;-64
2022/05/16 09:33:13;;;;;;;3.25;2.20;;;;;;;26.77;46.10;101300.91;5101417;28;20033;-64
2022/05/16 09:35:47;;;;;;;5.20;2.20;;;;;;;26.80;46.42;101300.81;5095925;28;20418;-64
2022/05/16 09:38:13;;;;;;;6.25;2.58;;;;;;;26.61;46.33;101304.88;5100115;28;20019;-64
2022/05/16 09:40:46;;;;;;;5.00;1.92;;;;;;;26.55;46.64;101294.41;5099333;28;20371;-64
2022/05/16 09:43:20;;;;;;;4.22;2.17;;;;;;;26.94;47.93;101308.38;5089579;28;20086;-64
2022/05/16 09:45:51;;;;;;;5.93;2.03;;;;;;;27.14;46.50;101312.25;5087005;28;20338;-64
2022/05/16 09:48:19;;;;;;;4.90;2.17;;;;;;;26.91;46.29;101309.31;5088825;28;20376;-64
2022/05/16 09:50:56;;;;;;;3.65;2.10;;;;;;;26.90;46.16;101317.34;5090541;28;20387;-64
2022/05/16 09:53:30;;;;;;;8.25;3.13;;;;;;;26.60;46.02;101312.91;5091141;28;20028;-64
2022/05/16 09:56:03;;;;;;;3.63;2.05;;;;;;;26.46;47.31;101315.94;5097014;28;20031;-64
2022/05/16 09:58:34;;;;;;;3.88;2.15;;;;;;;26.48;47.31;101322.94;5100068;28;20057;-64
2022/05/16 10:01:01;;;;;;;9.38;2.38;;;;;;;26.67;47.45;101330.41;5098980;27;20060;-64
2022/05/16 10:03:36;;;;;;;3.97;2.13;;;;;;;26.79;47.20;101337.16;5108591;28;20031;-64
2022/05/16 10:06:08;;;;;;;4.90;2.20;;;;;;;26.88;46.48;101343.13;5110270;28;20032;-64
2022/05/16 10:08:42;;;;;;;5.03;2.60;;;;;;;26.67;45.98;101343.69;5109697;28;20102;-64
2022/05/16 10:11:26;;;;;;;3.58;2.38;;;;;;;26.65;47.38;101355.25;5108643;28;20491;-64
2022/05/16 10:13:52;;;;;;;5.38;2.83;;;;;;;26.75;47.14;101354.09;5102042;28;20026;-64
2022/05/16 10:16:18;;;;;;;8.07;2.45;;;;;;;26.77;47.67;101348.75;5101944;28;20123;-64
2022/05/16 10:18:49;;;;;;;9.30;2.70;;;;;;;26.84;47.49;101353.81;5103905;28;20314;-64
2022/05/16 10:21:52;;;;;;;6.40;2.53;;;;;;;26.79;47.42;101358.41;5100632;28;20031;-64
2022/05/16 10:24:19;;;;;;;5.22;2.60;;;;;;;26.65;47.51;101371.22;5091736;28;20053;-64
2022/05/16 10:26:48;;;;;;;6.07;2.60;;;;;;;26.44;48.89;101369.13;5099061;27;20031;-64
2022/05/16 10:29:38;;;;;;;7.72;3.00;;;;;;;25.85;49.07;101371.41;5104785;28;20028;-64
2022/05/16 10:35:14;;;;;;;4.47;2.72;;;;;;;25.23;53.81;101412.56;5105104;28;20581;-64
2022/05/16 10:44:31;;;;;;;14.70;5.10;;;;;;;23.41;78.57;101444.53;5098213;28;20038;-65
2022/05/16 10:47:03;;;;;;;10.20;5.00;;;;;;;22.87;84.73;101456.59;5097058;28;20028;-64
2022/05/16 10:49:37;;;;;;;9.88;4.70;;;;;;;22.04;85.47;101451.94;5097265;28;20088;-64
2022/05/16 10:52:25;;;;;;;9.88;4.97;;;;;;;22.03;91.68;101453.72;5100247;28;20110;-64
2022/05/16 10:54:51;;;;;;;10.90;5.22;;;;;;;22.27;96.19;101459.69;5098988;28;20156;-64
2022/05/16 10:57:29;;;;;;;6.43;4.97;;;;;;;22.65;94.64;101455.03;5101186;28;20119;-65
2022/05/16 11:00:20;;;;;;;11.23;5.15;;;;;;;23.16;94.30;101455.41;5098574;28;20066;-64
2022/05/16 11:03:04;;;;;;;9.82;5.10;;;;;;;23.30;88.46;101454.38;5089063;28;20127;-65
2022/05/16 11:05:39;;;;;;;9.32;5.55;;;;;;;23.44;86.90;101463.03;5104422;28;20035;-64
2022/05/16 11:08:26;;;;;;;7.85;5.43;;;;;;;23.45;86.85;101461.28;5108837;28;20024;-65
2022/05/16 11:11:10;;;;;;;7.75;5.50;;;;;;;23.52;86.84;101462.94;5100298;28;20063;-65
2022/05/16 11:13:48;;;;;;;10.52;5.35;;;;;;;23.55;87.28;101451.47;5104666;28;20026;-65
2022/05/16 11:16:26;;;;;;;11.38;5.47;;;;;;;23.61;89.05;101456.66;5104108;28;20460;-65
2022/05/16 11:19:05;;;;;;;9.10;4.97;;;;;;;23.79;86.72;101457.31;5103056;28;20024;-65
2022/05/16 11:21:45;;;;;;;13.40;5.72;;;;;;;23.77;82.25;101451.16;5102894;28;20088;-65
2022/05/16 11:24:52;;;;;;;9.27;5.63;;;;;;;23.81;89.43;101459.06;5104366;28;20027;-65
2022/05/16 11:27:33;;;;;;;8.65;5.00;;;;;;;23.93;82.13;101457.09;5104603;28;20377;-65
2022/05/16 11:30:08;;;;;;;8.40;5.22;;;;;;;23.95;77.67;101465.91;5102439;28;20031;-65
2022/05/16 11:32:59;;;;;;;10.27;5.57;;;;;;;23.80;77.26;101464.38;5100506;28;20518;-65
2022/05/16 11:35:30;;;;;;;7.35;5.10;;;;;;;23.68;75.54;101471.56;5103809;28;20339;-64
2022/05/16 11:38:12;;;;;;;9.10;6.25;;;;;;;23.46;77.09;101477.13;5104167;28;20031;-64
2022/05/16 11:40:51;;;;;;;11.77;6.25;;;;;;;23.26;75.67;101488.78;5103773;28;20115;-65
2022/05/16 11:43:27;;;;;;;10.10;6.10;;;;;;;23.01;76.99;101481.09;5102613;28;20325;-64
2022/05/16 11:46:28;;;;;;;11.93;6.15;;;;;;;22.87;79.80;101475.06;5104277;28;20111;-65
2022/05/16 11:49:10;;;;;;;10.45;6.47;;;;;;;22.82;79.58;101476.91;5103364;27;20016;-64
2022/05/16 11:52:08;;;;;;;14.25;7.72;;;;;;;22.74;83.30;101491.03;5101209;28;20028;-65
2022/05/16 11:54:38;;;;;;;13.35;6.95;;;;;;;22.71;81.28;101485.78;5096540;28;20035;-64
2022/05/16 12:03:05;;;;;;;11.05;7.40;;;;;;;22.39;83.03;101484.25;5102976;28;20197;-65
2022/05/16 12:05:39;;;;;;;8.32;6.60;;;;;;;22.21;80.70;101486.16;5102139;28;20484;-64
2022/05/16 12:08:25;;;;;;;9.13;6.93;;;;;;;22.13;83.99;101499.38;5104784;28;20019;-65
2022/05/16 12:10:55;;;;;;;8.55;6.25;;;;;;;22.15;85.06;101496.72;5107471;28;20028;-64
2022/05/16 12:13:31;;;;;;;8.23;6.90;;;;;;;22.16;86.06;101498.50;5106525;28;20089;-65